sensor_id;sensor_type;location;lat;lon;timestamp;temperature;humidity
10964;DHT22;5534;48.784;9.190;2023-03-23T00:00:55;15.40;99.90
10964;DHT22;5534;48.784;9.190;2023-03-23T00:03:21;15.30;99.90
10964;DHT22;5534;48.784;9.190;2023-03-23T00:05:48;15.40;99.90
10964;DHT22;5534;48.784;9.190;2023-03-23T00:08:19;15.50;99.90
10964;DHT22;5534;48.784;9.190;2023-03-23T00:10:50;15.50;99.90
10964;DHT22;5534;48.784;9.190;2023-03-23T00:13:23;15.50;99.90
10964;DHT22;5534;48.784;9.190;2023-03-23T00:15:49;15.50;99.90
10964;DHT22;5534;48.784;9.190;2023-03-23T00:18:18;15.50;99.90
10964;DHT22;5534;48.784;9.190;2023-03-23T00:20:52;15.50;99.90
10964;DHT22;5534;48.784;9.190;2023-03-23T00:23:20;15.40;99.90
10964;DHT22;5534;48.784;9.190;2023-03-23T00:25:54;15.50;99.90
10964;DHT22;5534;48.784;9.190;2023-03-23T00:28:24;15.40;99.90
10964;DHT22;5534;48.784;9.190;2023-03-23T00:30:59;15.30;99.90
10964;DHT22;5534;48.784;9.190;2023-03-23T00:33:27;15.40;99.90
10964;DHT22;5534;48.784;9.190;2023-03-23T00:35:54;15.50;99.90
10964;DHT22;5534;48.784;9.190;2023-03-23T00:38:23;15.60;99.90
10964;DHT22;5534;48.784;9.190;2023-03-23T00:40:51;15.50;99.90
10964;DHT22;5534;48.784;9.190;2023-03-23T00:43:19;15.50;99.90
10964;DHT22;5534;48.784;9.190;2023-03-23T00:45:45;15.50;99.90
10964;DHT22;5534;48.784;9.190;2023-03-23T00:48:19;15.50;99.90
10964;DHT22;5534;48.784;9.190;2023-03-23T00:50:46;15.50;99.90
10964;DHT22;5534;48.784;9.190;2023-03-23T00:53:11;15.40;99.90
10964;DHT22;5534;48.784;9.190;2023-03-23T00:55:37;15.40;99.90
10964;DHT22;5534;48.784;9.190;2023-03-23T00:58:03;15.30;99.90
10964;DHT22;5534;48.784;9.190;2023-03-23T01:00:29;15.40;99.90
10964;DHT22;5534;48.784;9.190;2023-03-23T01:02:55;15.30;99.90
10964;DHT22;5534;48.784;9.190;2023-03-23T01:05:21;15.20;99.90
10964;DHT22;5534;48.784;9.190;2023-03-23T01:07:47;15.40;99.90
10964;DHT22;5534;48.784;9.190;2023-03-23T01:10:14;15.40;99.90
10964;DHT22;5534;48.784;9.190;2023-03-23T01:12:46;15.40;99.90
10964;DHT22;5534;48.784;9.190;2023-03-23T01:15:14;15.50;99.90
10964;DHT22;5534;48.784;9.190;2023-03-23T01:17:42;15.40;99.90
10964;DHT22;5534;48.784;9.190;2023-03-23T01:20:08;15.50;99.90
10964;DHT22;5534;48.784;9.190;2023-03-23T01:22:35;15.40;99.90
10964;DHT22;5534;48.784;9.190;2023-03-23T01:25:01;15.40;99.90
10964;DHT22;5534;48.784;9.190;2023-03-23T01:27:27;15.40;99.90
10964;DHT22;5534;48.784;9.190;2023-03-23T01:29:52;15.30;99.90
10964;DHT22;5534;48.784;9.190;2023-03-23T01:32:18;15.20;99.90
10964;DHT22;5534;48.784;9.190;2023-03-23T01:34:44;15.20;99.90
10964;DHT22;5534;48.784;9.190;2023-03-23T01:37:10;15.30;99.90
10964;DHT22;5534;48.784;9.190;2023-03-23T01:39:36;15.40;99.90
10964;DHT22;5534;48.784;9.190;2023-03-23T01:42:03;15.40;99.90
10964;DHT22;5534;48.784;9.190;2023-03-23T01:46:58;15.40;99.90
10964;DHT22;5534;48.784;9.190;2023-03-23T01:49:27;15.50;99.90
10964;DHT22;5534;48.784;9.190;2023-03-23T01:52:06;15.40;99.90
10964;DHT22;5534;48.784;9.190;2023-03-23T01:54:34;15.40;99.90
10964;DHT22;5534;48.784;9.190;2023-03-23T01:57:14;15.30;99.90
10964;DHT22;5534;48.784;9.190;2023-03-23T01:59:43;15.20;99.90
10964;DHT22;5534;48.784;9.190;2023-03-23T02:02:11;15.20;99.90
10964;DHT22;5534;48.784;9.190;2023-03-23T02:04:37;15.20;99.90
10964;DHT22;5534;48.784;9.190;2023-03-23T02:07:03;15.20;99.90
10964;DHT22;5534;48.784;9.190;2023-03-23T02:09:29;15.30;99.90
10964;DHT22;5534;48.784;9.190;2023-03-23T02:11:55;15.30;99.90
10964;DHT22;5534;48.784;9.190;2023-03-23T02:14:23;15.20;99.90
10964;DHT22;5534;48.784;9.190;2023-03-23T02:28:17;15.30;99.90
10964;DHT22;5534;48.784;9.190;2023-03-23T02:39:33;15.30;99.90
10964;DHT22;5534;48.784;9.190;2023-03-23T02:42:05;15.30;99.90
10964;DHT22;5534;48.784;9.190;2023-03-23T02:44:33;15.40;99.90
10964;DHT22;5534;48.784;9.190;2023-03-23T02:47:02;15.30;99.90
10964;DHT22;5534;48.784;9.190;2023-03-23T02:49:31;15.30;99.90
10964;DHT22;5534;48.784;9.190;2023-03-23T02:52:05;15.20;99.90
10964;DHT22;5534;48.784;9.190;2023-03-23T02:54:33;15.30;99.90
10964;DHT22;5534;48.784;9.190;2023-03-23T02:57:00;15.30;99.90
10964;DHT22;5534;48.784;9.190;2023-03-23T02:59:26;15.20;99.90
10964;DHT22;5534;48.784;9.190;2023-03-23T03:04:29;15.20;99.90
10964;DHT22;5534;48.784;9.190;2023-03-23T03:10:11;15.10;99.90
10964;DHT22;5534;48.784;9.190;2023-03-23T03:12:55;15.20;99.90
10964;DHT22;5534;48.784;9.190;2023-03-23T03:15:44;14.90;99.90
10964;DHT22;5534;48.784;9.190;2023-03-23T03:18:49;14.80;99.90
10964;DHT22;5534;48.784;9.190;2023-03-23T03:21:19;15.00;99.90
10964;DHT22;5534;48.784;9.190;2023-03-23T03:23:47;14.90;99.90
10964;DHT22;5534;48.784;9.190;2023-03-23T03:26:15;15.00;99.90
10964;DHT22;5534;48.784;9.190;2023-03-23T03:28:44;14.70;99.90
10964;DHT22;5534;48.784;9.190;2023-03-23T03:31:15;14.50;99.90
10964;DHT22;5534;48.784;9.190;2023-03-23T03:33:42;14.50;99.90
10964;DHT22;5534;48.784;9.190;2023-03-23T03:36:15;14.60;99.90
10964;DHT22;5534;48.784;9.190;2023-03-23T03:38:43;14.70;99.90
10964;DHT22;5534;48.784;9.190;2023-03-23T03:41:09;14.80;99.90
10964;DHT22;5534;48.784;9.190;2023-03-23T03:43:35;14.80;99.90
10964;DHT22;5534;48.784;9.190;2023-03-23T03:46:01;14.70;99.90
10964;DHT22;5534;48.784;9.190;2023-03-23T03:48:27;14.80;99.90
10964;DHT22;5534;48.784;9.190;2023-03-23T03:50:53;14.90;99.90
10964;DHT22;5534;48.784;9.190;2023-03-23T03:53:23;14.80;99.90
10964;DHT22;5534;48.784;9.190;2023-03-23T03:55:49;14.90;99.90
10964;DHT22;5534;48.784;9.190;2023-03-23T03:58:16;14.70;99.90
10964;DHT22;5534;48.784;9.190;2023-03-23T04:00:42;14.80;99.90
10964;DHT22;5534;48.784;9.190;2023-03-23T04:03:08;15.00;99.90
10964;DHT22;5534;48.784;9.190;2023-03-23T04:05:38;15.00;99.90
10964;DHT22;5534;48.784;9.190;2023-03-23T04:08:03;15.00;99.90
10964;DHT22;5534;48.784;9.190;2023-03-23T04:10:30;15.10;99.90
10964;DHT22;5534;48.784;9.190;2023-03-23T04:12:56;14.90;99.90
10964;DHT22;5534;48.784;9.190;2023-03-23T04:15:22;14.90;99.90
10964;DHT22;5534;48.784;9.190;2023-03-23T04:17:48;15.00;99.90
10964;DHT22;5534;48.784;9.190;2023-03-23T04:20:16;15.00;99.90
10964;DHT22;5534;48.784;9.190;2023-03-23T04:22:47;15.00;99.90
10964;DHT22;5534;48.784;9.190;2023-03-23T04:25:17;15.10;99.90
10964;DHT22;5534;48.784;9.190;2023-03-23T04:27:46;15.10;99.90
10964;DHT22;5534;48.784;9.190;2023-03-23T04:30:23;15.10;99.90
10964;DHT22;5534;48.784;9.190;2023-03-23T04:32:50;14.90;99.90
10964;DHT22;5534;48.784;9.190;2023-03-23T04:35:19;14.90;99.90
10964;DHT22;5534;48.784;9.190;2023-03-23T04:37:45;15.00;99.90
10964;DHT22;5534;48.784;9.190;2023-03-23T04:40:11;15.00;99.90
10964;DHT22;5534;48.784;9.190;2023-03-23T04:42:41;15.00;99.90
10964;DHT22;5534;48.784;9.190;2023-03-23T04:45:08;14.90;99.90
10964;DHT22;5534;48.784;9.190;2023-03-23T04:47:36;14.90;99.90
10964;DHT22;5534;48.784;9.190;2023-03-23T04:50:10;14.90;99.90
10964;DHT22;5534;48.784;9.190;2023-03-23T04:52:38;15.10;99.90
10964;DHT22;5534;48.784;9.190;2023-03-23T04:55:08;15.10;99.90
10964;DHT22;5534;48.784;9.190;2023-03-23T04:57:38;15.10;99.90
10964;DHT22;5534;48.784;9.190;2023-03-23T05:00:05;15.10;99.90
10964;DHT22;5534;48.784;9.190;2023-03-23T05:02:38;15.10;99.90
10964;DHT22;5534;48.784;9.190;2023-03-23T05:05:06;15.20;99.90
10964;DHT22;5534;48.784;9.190;2023-03-23T05:07:32;15.20;99.90
10964;DHT22;5534;48.784;9.190;2023-03-23T05:09:58;15.10;99.90
10964;DHT22;5534;48.784;9.190;2023-03-23T05:12:23;15.20;99.90
10964;DHT22;5534;48.784;9.190;2023-03-23T05:14:49;15.20;99.90
10964;DHT22;5534;48.784;9.190;2023-03-23T05:17:15;15.10;99.90
10964;DHT22;5534;48.784;9.190;2023-03-23T05:19:43;15.10;99.90
10964;DHT22;5534;48.784;9.190;2023-03-23T05:22:16;15.10;99.90
10964;DHT22;5534;48.784;9.190;2023-03-23T05:24:42;15.10;99.90
10964;DHT22;5534;48.784;9.190;2023-03-23T05:27:09;15.00;99.90
10964;DHT22;5534;48.784;9.190;2023-03-23T05:29:35;15.10;99.90
10964;DHT22;5534;48.784;9.190;2023-03-23T05:32:04;15.20;99.90
10964;DHT22;5534;48.784;9.190;2023-03-23T05:34:31;15.20;99.90
10964;DHT22;5534;48.784;9.190;2023-03-23T05:37:00;15.20;99.90
10964;DHT22;5534;48.784;9.190;2023-03-23T05:39:27;15.20;99.90
10964;DHT22;5534;48.784;9.190;2023-03-23T05:41:54;15.20;99.90
10964;DHT22;5534;48.784;9.190;2023-03-23T05:44:20;15.20;99.90
10964;DHT22;5534;48.784;9.190;2023-03-23T05:46:47;15.20;99.90
10964;DHT22;5534;48.784;9.190;2023-03-23T05:49:13;15.30;99.90
10964;DHT22;5534;48.784;9.190;2023-03-23T05:51:42;15.20;99.90
10964;DHT22;5534;48.784;9.190;2023-03-23T05:54:08;15.20;99.90
10964;DHT22;5534;48.784;9.190;2023-03-23T05:56:35;15.20;99.90
10964;DHT22;5534;48.784;9.190;2023-03-23T05:59:01;15.30;99.90
10964;DHT22;5534;48.784;9.190;2023-03-23T06:01:29;15.30;99.90
10964;DHT22;5534;48.784;9.190;2023-03-23T06:03:55;15.30;99.90
10964;DHT22;5534;48.784;9.190;2023-03-23T06:06:29;15.30;99.90
10964;DHT22;5534;48.784;9.190;2023-03-23T06:08:56;15.30;99.90
10964;DHT22;5534;48.784;9.190;2023-03-23T06:11:23;15.40;99.90
10964;DHT22;5534;48.784;9.190;2023-03-23T06:13:50;15.50;99.90
10964;DHT22;5534;48.784;9.190;2023-03-23T06:16:16;15.50;99.90
10964;DHT22;5534;48.784;9.190;2023-03-23T06:18:42;15.40;99.90
10964;DHT22;5534;48.784;9.190;2023-03-23T06:21:09;15.40;99.90
10964;DHT22;5534;48.784;9.190;2023-03-23T06:23:35;15.50;99.90
10964;DHT22;5534;48.784;9.190;2023-03-23T06:26:03;15.50;99.90
10964;DHT22;5534;48.784;9.190;2023-03-23T06:28:31;15.40;99.90
10964;DHT22;5534;48.784;9.190;2023-03-23T06:31:05;15.50;99.90
10964;DHT22;5534;48.784;9.190;2023-03-23T06:33:33;15.40;99.90
10964;DHT22;5534;48.784;9.190;2023-03-23T06:35:59;15.50;99.90
10964;DHT22;5534;48.784;9.190;2023-03-23T06:38:25;15.50;99.90
10964;DHT22;5534;48.784;9.190;2023-03-23T06:40:52;15.50;99.90
10964;DHT22;5534;48.784;9.190;2023-03-23T06:43:19;15.60;99.90
10964;DHT22;5534;48.784;9.190;2023-03-23T06:45:44;15.60;99.90
10964;DHT22;5534;48.784;9.190;2023-03-23T06:48:11;15.60;99.90
10964;DHT22;5534;48.784;9.190;2023-03-23T06:50:37;15.60;99.90
10964;DHT22;5534;48.784;9.190;2023-03-23T06:53:03;15.60;99.90
10964;DHT22;5534;48.784;9.190;2023-03-23T06:55:29;15.60;99.90
10964;DHT22;5534;48.784;9.190;2023-03-23T06:57:55;15.60;99.90
10964;DHT22;5534;48.784;9.190;2023-03-23T07:00:20;15.60;99.90
10964;DHT22;5534;48.784;9.190;2023-03-23T07:02:46;15.80;99.90
10964;DHT22;5534;48.784;9.190;2023-03-23T07:05:12;15.90;99.90
10964;DHT22;5534;48.784;9.190;2023-03-23T07:07:40;16.00;99.90
10964;DHT22;5534;48.784;9.190;2023-03-23T07:10:08;16.10;99.90
10964;DHT22;5534;48.784;9.190;2023-03-23T07:12:35;16.10;99.90
10964;DHT22;5534;48.784;9.190;2023-03-23T07:15:04;16.00;99.90
10964;DHT22;5534;48.784;9.190;2023-03-23T07:17:30;16.00;99.90
10964;DHT22;5534;48.784;9.190;2023-03-23T07:19:57;16.00;99.90
10964;DHT22;5534;48.784;9.190;2023-03-23T07:22:23;16.10;99.90
10964;DHT22;5534;48.784;9.190;2023-03-23T07:24:50;16.00;99.90
10964;DHT22;5534;48.784;9.190;2023-03-23T07:27:16;16.00;99.90
10964;DHT22;5534;48.784;9.190;2023-03-23T07:29:42;16.00;99.90
10964;DHT22;5534;48.784;9.190;2023-03-23T07:32:10;16.00;99.90
10964;DHT22;5534;48.784;9.190;2023-03-23T07:34:37;15.90;99.90
10964;DHT22;5534;48.784;9.190;2023-03-23T07:37:03;15.90;99.90
10964;DHT22;5534;48.784;9.190;2023-03-23T07:39:30;15.90;99.90
10964;DHT22;5534;48.784;9.190;2023-03-23T07:41:56;15.90;99.90
10964;DHT22;5534;48.784;9.190;2023-03-23T07:44:22;16.00;99.90
10964;DHT22;5534;48.784;9.190;2023-03-23T07:46:50;16.00;99.90
10964;DHT22;5534;48.784;9.190;2023-03-23T07:49:19;16.00;99.90
10964;DHT22;5534;48.784;9.190;2023-03-23T07:51:47;16.00;99.90
10964;DHT22;5534;48.784;9.190;2023-03-23T07:54:15;16.10;99.90
10964;DHT22;5534;48.784;9.190;2023-03-23T07:56:42;16.30;99.90
10964;DHT22;5534;48.784;9.190;2023-03-23T07:59:08;16.30;99.90
10964;DHT22;5534;48.784;9.190;2023-03-23T08:01:37;16.30;99.90
10964;DHT22;5534;48.784;9.190;2023-03-23T08:04:05;16.40;99.90
10964;DHT22;5534;48.784;9.190;2023-03-23T08:06:34;16.50;99.90
10964;DHT22;5534;48.784;9.190;2023-03-23T08:09:02;16.70;99.90
10964;DHT22;5534;48.784;9.190;2023-03-23T08:11:34;16.80;99.90
10964;DHT22;5534;48.784;9.190;2023-03-23T08:14:00;16.90;99.90
10964;DHT22;5534;48.784;9.190;2023-03-23T08:16:26;16.90;99.90
10964;DHT22;5534;48.784;9.190;2023-03-23T08:18:53;16.70;99.90
10964;DHT22;5534;48.784;9.190;2023-03-23T08:21:18;16.70;99.90
10964;DHT22;5534;48.784;9.190;2023-03-23T08:23:46;16.80;99.90
10964;DHT22;5534;48.784;9.190;2023-03-23T08:26:12;16.70;99.90
10964;DHT22;5534;48.784;9.190;2023-03-23T08:28:38;16.70;99.90
10964;DHT22;5534;48.784;9.190;2023-03-23T08:31:12;16.70;99.90
10964;DHT22;5534;48.784;9.190;2023-03-23T08:33:38;16.60;99.90
10964;DHT22;5534;48.784;9.190;2023-03-23T08:36:05;16.60;99.90
10964;DHT22;5534;48.784;9.190;2023-03-23T08:38:31;16.50;99.90
10964;DHT22;5534;48.784;9.190;2023-03-23T08:41:01;16.60;99.90
10964;DHT22;5534;48.784;9.190;2023-03-23T08:43:28;16.60;99.90
10964;DHT22;5534;48.784;9.190;2023-03-23T08:45:54;16.60;99.90
10964;DHT22;5534;48.784;9.190;2023-03-23T08:48:21;16.50;99.90
10964;DHT22;5534;48.784;9.190;2023-03-23T08:50:49;16.50;99.90
10964;DHT22;5534;48.784;9.190;2023-03-23T08:53:15;16.50;99.90
10964;DHT22;5534;48.784;9.190;2023-03-23T08:55:41;16.50;99.90
10964;DHT22;5534;48.784;9.190;2023-03-23T08:58:08;16.50;99.90
10964;DHT22;5534;48.784;9.190;2023-03-23T09:00:35;16.50;99.90
10964;DHT22;5534;48.784;9.190;2023-03-23T09:03:00;16.60;99.90
10964;DHT22;5534;48.784;9.190;2023-03-23T09:05:27;16.70;99.90
10964;DHT22;5534;48.784;9.190;2023-03-23T09:07:56;16.80;99.90
10964;DHT22;5534;48.784;9.190;2023-03-23T09:10:27;16.70;99.90
10964;DHT22;5534;48.784;9.190;2023-03-23T09:12:54;16.80;99.90
10964;DHT22;5534;48.784;9.190;2023-03-23T09:15:20;16.80;99.90
10964;DHT22;5534;48.784;9.190;2023-03-23T09:17:49;17.00;99.90
10964;DHT22;5534;48.784;9.190;2023-03-23T09:20:20;17.00;99.90
10964;DHT22;5534;48.784;9.190;2023-03-23T09:22:49;17.10;99.90
10964;DHT22;5534;48.784;9.190;2023-03-23T09:25:17;17.10;99.90
10964;DHT22;5534;48.784;9.190;2023-03-23T09:27:50;17.00;99.90
10964;DHT22;5534;48.784;9.190;2023-03-23T09:30:29;17.10;99.90
10964;DHT22;5534;48.784;9.190;2023-03-23T09:32:56;17.20;99.90
10964;DHT22;5534;48.784;9.190;2023-03-23T09:35:24;17.30;99.90
10964;DHT22;5534;48.784;9.190;2023-03-23T09:37:51;17.30;99.90
10964;DHT22;5534;48.784;9.190;2023-03-23T09:40:20;17.10;99.90
10964;DHT22;5534;48.784;9.190;2023-03-23T09:43:16;17.10;99.90
10964;DHT22;5534;48.784;9.190;2023-03-23T09:48:38;17.10;99.90
10964;DHT22;5534;48.784;9.190;2023-03-23T09:54:26;16.90;99.90
10964;DHT22;5534;48.784;9.190;2023-03-23T09:56:53;16.90;99.90
10964;DHT22;5534;48.784;9.190;2023-03-23T09:59:37;17.00;99.90
10964;DHT22;5534;48.784;9.190;2023-03-23T10:02:15;17.00;99.90
10964;DHT22;5534;48.784;9.190;2023-03-23T10:04:49;17.20;99.90
10964;DHT22;5534;48.784;9.190;2023-03-23T10:07:20;17.30;99.90
10964;DHT22;5534;48.784;9.190;2023-03-23T10:09:50;17.40;99.90
10964;DHT22;5534;48.784;9.190;2023-03-23T10:15:16;17.30;99.90
10964;DHT22;5534;48.784;9.190;2023-03-23T10:17:48;17.20;99.90
10964;DHT22;5534;48.784;9.190;2023-03-23T10:25:48;17.30;99.90
10964;DHT22;5534;48.784;9.190;2023-03-23T10:28:21;17.20;99.90
10964;DHT22;5534;48.784;9.190;2023-03-23T10:30:53;17.40;99.90
10964;DHT22;5534;48.784;9.190;2023-03-23T10:33:36;17.40;99.90
10964;DHT22;5534;48.784;9.190;2023-03-23T10:38:47;17.60;99.90
10964;DHT22;5534;48.784;9.190;2023-03-23T10:41:16;17.70;99.90
10964;DHT22;5534;48.784;9.190;2023-03-23T10:43:43;17.60;99.90
10964;DHT22;5534;48.784;9.190;2023-03-23T10:46:22;17.50;99.90
10964;DHT22;5534;48.784;9.190;2023-03-23T10:48:50;17.60;99.90
10964;DHT22;5534;48.784;9.190;2023-03-23T10:51:22;17.30;99.90
10964;DHT22;5534;48.784;9.190;2023-03-23T10:53:56;17.40;99.90
10964;DHT22;5534;48.784;9.190;2023-03-23T10:56:35;17.50;99.90
10964;DHT22;5534;48.784;9.190;2023-03-23T10:59:14;17.50;99.90
10964;DHT22;5534;48.784;9.190;2023-03-23T11:01:43;17.60;99.90
10964;DHT22;5534;48.784;9.190;2023-03-23T11:04:15;17.60;99.90
10964;DHT22;5534;48.784;9.190;2023-03-23T11:06:45;17.60;99.90
10964;DHT22;5534;48.784;9.190;2023-03-23T11:09:21;17.70;99.90
10964;DHT22;5534;48.784;9.190;2023-03-23T11:11:54;17.90;99.90
10964;DHT22;5534;48.784;9.190;2023-03-23T11:14:31;17.70;99.90
10964;DHT22;5534;48.784;9.190;2023-03-23T11:17:04;17.70;99.90
10964;DHT22;5534;48.784;9.190;2023-03-23T11:19:35;17.70;99.90
10964;DHT22;5534;48.784;9.190;2023-03-23T11:24:41;17.60;99.90
10964;DHT22;5534;48.784;9.190;2023-03-23T11:27:09;17.60;99.90
10964;DHT22;5534;48.784;9.190;2023-03-23T11:29:42;17.80;99.90
10964;DHT22;5534;48.784;9.190;2023-03-23T11:32:11;17.60;99.90
10964;DHT22;5534;48.784;9.190;2023-03-23T11:34:48;17.60;99.90
10964;DHT22;5534;48.784;9.190;2023-03-23T11:37:31;17.50;99.90
10964;DHT22;5534;48.784;9.190;2023-03-23T11:40:13;17.50;99.90
10964;DHT22;5534;48.784;9.190;2023-03-23T11:46:04;17.80;99.90
10964;DHT22;5534;48.784;9.190;2023-03-23T11:48:57;18.00;99.90
10964;DHT22;5534;48.784;9.190;2023-03-23T11:54:51;18.00;99.90
10964;DHT22;5534;48.784;9.190;2023-03-23T11:56:57;17.90;99.90
10964;DHT22;5534;48.784;9.190;2023-03-23T11:59:31;18.10;99.90
10964;DHT22;5534;48.784;9.190;2023-03-23T12:07:45;18.10;99.90
10964;DHT22;5534;48.784;9.190;2023-03-23T12:12:55;18.30;99.90
10964;DHT22;5534;48.784;9.190;2023-03-23T12:15:30;18.30;99.90
10964;DHT22;5534;48.784;9.190;2023-03-23T12:20:55;18.20;99.90
10964;DHT22;5534;48.784;9.190;2023-03-23T12:23:25;18.20;99.90
10964;DHT22;5534;48.784;9.190;2023-03-23T12:28:48;18.20;99.90
10964;DHT22;5534;48.784;9.190;2023-03-23T12:36:48;18.30;99.90
10964;DHT22;5534;48.784;9.190;2023-03-23T12:42:12;18.10;99.90
10964;DHT22;5534;48.784;9.190;2023-03-23T12:45:00;18.20;99.90
10964;DHT22;5534;48.784;9.190;2023-03-23T12:47:43;18.50;99.90
10964;DHT22;5534;48.784;9.190;2023-03-23T12:50:32;18.50;99.90
10964;DHT22;5534;48.784;9.190;2023-03-23T12:53:18;18.70;99.90
10964;DHT22;5534;48.784;9.190;2023-03-23T12:55:52;18.80;99.90
10964;DHT22;5534;48.784;9.190;2023-03-23T12:58:26;18.80;99.90
10964;DHT22;5534;48.784;9.190;2023-03-23T13:03:42;18.70;99.90
10964;DHT22;5534;48.784;9.190;2023-03-23T13:06:38;18.70;99.90
10964;DHT22;5534;48.784;9.190;2023-03-23T13:11:59;18.30;99.90
10964;DHT22;5534;48.784;9.190;2023-03-23T13:17:32;18.40;99.90
10964;DHT22;5534;48.784;9.190;2023-03-23T13:20:23;18.40;99.90
10964;DHT22;5534;48.784;9.190;2023-03-23T13:23:01;18.30;99.90
10964;DHT22;5534;48.784;9.190;2023-03-23T13:25:50;18.30;99.90
10964;DHT22;5534;48.784;9.190;2023-03-23T13:28:19;18.30;99.90
10964;DHT22;5534;48.784;9.190;2023-03-23T13:30:58;18.40;99.90
10964;DHT22;5534;48.784;9.190;2023-03-23T13:33:24;18.50;99.90
10964;DHT22;5534;48.784;9.190;2023-03-23T13:35:50;18.40;99.90
10964;DHT22;5534;48.784;9.190;2023-03-23T13:38:24;18.60;99.90
10964;DHT22;5534;48.784;9.190;2023-03-23T13:40:51;18.70;99.90
10964;DHT22;5534;48.784;9.190;2023-03-23T13:43:27;18.60;99.90
10964;DHT22;5534;48.784;9.190;2023-03-23T13:45:54;18.60;99.90
10964;DHT22;5534;48.784;9.190;2023-03-23T13:48:25;18.60;99.90
10964;DHT22;5534;48.784;9.190;2023-03-23T13:50:59;18.60;99.90
10964;DHT22;5534;48.784;9.190;2023-03-23T13:53:45;18.70;99.90
10964;DHT22;5534;48.784;9.190;2023-03-23T13:56:32;18.70;99.90
10964;DHT22;5534;48.784;9.190;2023-03-23T13:59:28;18.70;99.90
10964;DHT22;5534;48.784;9.190;2023-03-23T14:01:56;18.70;99.90
10964;DHT22;5534;48.784;9.190;2023-03-23T14:04:30;18.50;99.90
10964;DHT22;5534;48.784;9.190;2023-03-23T14:06:57;18.40;99.90
10964;DHT22;5534;48.784;9.190;2023-03-23T14:09:30;18.30;99.90
10964;DHT22;5534;48.784;9.190;2023-03-23T14:12:22;18.50;99.90
10964;DHT22;5534;48.784;9.190;2023-03-23T14:14:58;18.50;99.90
10964;DHT22;5534;48.784;9.190;2023-03-23T14:17:29;18.60;99.90
10964;DHT22;5534;48.784;9.190;2023-03-23T14:19:57;18.60;99.90
10964;DHT22;5534;48.784;9.190;2023-03-23T14:22:26;18.60;99.90
10964;DHT22;5534;48.784;9.190;2023-03-23T14:25:08;18.50;99.90
10964;DHT22;5534;48.784;9.190;2023-03-23T14:27:35;18.50;99.90
10964;DHT22;5534;48.784;9.190;2023-03-23T14:30:05;18.70;99.90
10964;DHT22;5534;48.784;9.190;2023-03-23T14:32:32;18.60;99.90
10964;DHT22;5534;48.784;9.190;2023-03-23T14:35:00;18.50;99.90
10964;DHT22;5534;48.784;9.190;2023-03-23T14:37:31;18.50;99.90
10964;DHT22;5534;48.784;9.190;2023-03-23T14:39:57;18.50;99.90
10964;DHT22;5534;48.784;9.190;2023-03-23T14:42:35;18.40;99.90
10964;DHT22;5534;48.784;9.190;2023-03-23T14:45:04;18.40;99.90
10964;DHT22;5534;48.784;9.190;2023-03-23T14:47:33;18.40;99.90
10964;DHT22;5534;48.784;9.190;2023-03-23T14:50:02;18.60;99.90
10964;DHT22;5534;48.784;9.190;2023-03-23T14:52:34;18.60;99.90
10964;DHT22;5534;48.784;9.190;2023-03-23T14:55:13;18.60;99.90
10964;DHT22;5534;48.784;9.190;2023-03-23T14:57:43;18.60;99.90
10964;DHT22;5534;48.784;9.190;2023-03-23T15:02:41;18.60;99.90
10964;DHT22;5534;48.784;9.190;2023-03-23T15:05:16;18.40;99.90
10964;DHT22;5534;48.784;9.190;2023-03-23T15:07:47;18.50;99.90
10964;DHT22;5534;48.784;9.190;2023-03-23T15:10:17;18.50;99.90
10964;DHT22;5534;48.784;9.190;2023-03-23T15:12:47;18.50;99.90
10964;DHT22;5534;48.784;9.190;2023-03-23T15:15:28;18.50;99.90
10964;DHT22;5534;48.784;9.190;2023-03-23T15:17:55;18.50;99.90
10964;DHT22;5534;48.784;9.190;2023-03-23T15:20:46;18.50;99.90
10964;DHT22;5534;48.784;9.190;2023-03-23T15:23:16;18.60;99.90
10964;DHT22;5534;48.784;9.190;2023-03-23T15:25:52;18.50;99.90
10964;DHT22;5534;48.784;9.190;2023-03-23T15:28:39;18.50;99.90
10964;DHT22;5534;48.784;9.190;2023-03-23T15:31:06;18.50;99.90
10964;DHT22;5534;48.784;9.190;2023-03-23T15:33:39;18.60;99.90
10964;DHT22;5534;48.784;9.190;2023-03-23T15:36:15;18.50;99.90
10964;DHT22;5534;48.784;9.190;2023-03-23T15:38:46;18.40;99.90
10964;DHT22;5534;48.784;9.190;2023-03-23T15:41:46;18.40;99.90
10964;DHT22;5534;48.784;9.190;2023-03-23T15:44:21;18.40;99.90
10964;DHT22;5534;48.784;9.190;2023-03-23T15:47:02;18.30;99.90
10964;DHT22;5534;48.784;9.190;2023-03-23T15:49:28;18.30;99.90
10964;DHT22;5534;48.784;9.190;2023-03-23T15:51:54;18.20;99.90
10964;DHT22;5534;48.784;9.190;2023-03-23T15:54:20;18.20;99.90
10964;DHT22;5534;48.784;9.190;2023-03-23T15:56:46;18.10;99.90
10964;DHT22;5534;48.784;9.190;2023-03-23T15:59:12;18.10;99.90
10964;DHT22;5534;48.784;9.190;2023-03-23T16:01:40;18.10;99.90
10964;DHT22;5534;48.784;9.190;2023-03-23T16:04:16;18.20;99.90
10964;DHT22;5534;48.784;9.190;2023-03-23T16:06:43;18.20;99.90
10964;DHT22;5534;48.784;9.190;2023-03-23T16:09:14;18.10;99.90
10964;DHT22;5534;48.784;9.190;2023-03-23T16:11:40;18.10;99.90
10964;DHT22;5534;48.784;9.190;2023-03-23T16:14:06;17.90;99.90
10964;DHT22;5534;48.784;9.190;2023-03-23T16:16:45;18.00;99.90
10964;DHT22;5534;48.784;9.190;2023-03-23T16:19:12;18.00;99.90
10964;DHT22;5534;48.784;9.190;2023-03-23T16:21:39;18.00;99.90
10964;DHT22;5534;48.784;9.190;2023-03-23T16:24:06;17.90;99.90
10964;DHT22;5534;48.784;9.190;2023-03-23T16:26:33;17.90;99.90
10964;DHT22;5534;48.784;9.190;2023-03-23T16:29:00;17.90;99.90
10964;DHT22;5534;48.784;9.190;2023-03-23T16:31:29;17.90;99.90
10964;DHT22;5534;48.784;9.190;2023-03-23T16:33:58;17.90;99.90
10964;DHT22;5534;48.784;9.190;2023-03-23T16:36:26;17.80;99.90
10964;DHT22;5534;48.784;9.190;2023-03-23T16:38:54;17.70;99.90
10964;DHT22;5534;48.784;9.190;2023-03-23T16:41:19;17.70;99.90
10964;DHT22;5534;48.784;9.190;2023-03-23T16:43:45;17.70;99.90
10964;DHT22;5534;48.784;9.190;2023-03-23T16:46:11;17.70;99.90
10964;DHT22;5534;48.784;9.190;2023-03-23T16:48:38;17.80;99.90
10964;DHT22;5534;48.784;9.190;2023-03-23T16:51:04;17.70;99.90
10964;DHT22;5534;48.784;9.190;2023-03-23T16:53:32;17.70;99.90
10964;DHT22;5534;48.784;9.190;2023-03-23T16:55:58;17.60;99.90
10964;DHT22;5534;48.784;9.190;2023-03-23T16:58:24;17.50;99.90
10964;DHT22;5534;48.784;9.190;2023-03-23T17:00:50;17.50;99.90
10964;DHT22;5534;48.784;9.190;2023-03-23T17:03:18;17.60;99.90
10964;DHT22;5534;48.784;9.190;2023-03-23T17:05:44;17.50;99.90
10964;DHT22;5534;48.784;9.190;2023-03-23T17:08:11;17.40;99.90
10964;DHT22;5534;48.784;9.190;2023-03-23T17:10:38;17.40;99.90
10964;DHT22;5534;48.784;9.190;2023-03-23T17:13:05;17.40;99.90
10964;DHT22;5534;48.784;9.190;2023-03-23T17:15:30;17.40;99.90
10964;DHT22;5534;48.784;9.190;2023-03-23T17:17:56;17.40;99.90
10964;DHT22;5534;48.784;9.190;2023-03-23T17:20:22;17.40;99.90
10964;DHT22;5534;48.784;9.190;2023-03-23T17:22:49;17.30;99.90
10964;DHT22;5534;48.784;9.190;2023-03-23T17:25:16;17.30;99.90
10964;DHT22;5534;48.784;9.190;2023-03-23T17:27:58;17.40;99.90
10964;DHT22;5534;48.784;9.190;2023-03-23T17:30:24;17.30;99.90